1997 OLAF (1997270N11265)


On this page: IBTrACS data - Map and Plots - Positions - Intensities - Original source data

Summary

Start Sep 26
End Oct 12
Basin EP
LMI 60 kt
Sources hurdat_epa
jtwc_ep
atcf
In WMO? Yes
Previous storm 1997 GINGER (WP)
Previous in basin 1997 GINGER (WP)
Concurrent storms 1997 FRITZ (WP)
1997 MISSING (NI)
1997 GINGER (WP)
1997 OLAF (EP)
1997 HANK (WP)
1997 MISSING (WP)
1998 LUSI (SP)
1997 FABIAN (NA)
1997 PAULINE (EP)
1997 THREE-C (EP)
1997 IVAN (WP)
1997 JOAN (WP)
Next in basin 1997 PAULINE (EP)
Next storm 1997 HANK (WP)

top of page IBTrACS Data: File Access

top of page HURSAT Data: File Access

Image of storm

top of page Plots:

Map of storm track will not appear if FTP is down
Time series of cyclone Maximum Sustained Wind will not appear if FTP is down
Time series of cyclone Minimum Central Pressure will not appear if FTP is down

top of page Track Data:Position

hurdat_epa jtwc_ep atcf
Date Lat Lon Lat Lon Lat Lon
1997-09-26 12:00:00 11.3 -94.6 11.3 -94.6 11.3 -94.6
1997-09-26 18:00:00 12.2 -94.4 12.2 -94.4 12.2 -94.4
1997-09-27 00:00:00 13.1 -94.5 13.1 -94.5 13.1 -94.5
1997-09-27 06:00:00 13.7 -94.7 13.7 -94.7 13.7 -94.7
1997-09-27 12:00:00 14.1 -94.8 14.1 -94.8 14.1 -94.8
1997-09-27 18:00:00 14.5 -94.8 14.5 -94.8 14.5 -94.8
1997-09-28 00:00:00 14.9 -94.6 14.9 -94.6 14.9 -94.6
1997-09-28 06:00:00 15.3 -94.5 15.3 -94.5 15.3 -94.5
1997-09-28 12:00:00 15.6 -94.6 15.6 -94.6 15.6 -94.6
1997-09-28 18:00:00 15.9 -94.7 15.9 -94.7 15.9 -94.7
1997-09-29 00:00:00 16.2 -95.0 16.2 -95.0 16.2 -95.0
1997-09-29 06:00:00 16.2 -95.7 16.2 -95.7 16.2 -95.7
1997-09-29 12:00:00 16.1 -95.9 16.1 -95.9 16.1 -95.9
1997-09-29 18:00:00 16.0 -96.5 16.0 -96.5 16.0 -96.5
1997-09-30 00:00:00 15.9 -97.1 15.9 -97.1 15.9 -97.1
1997-09-30 06:00:00 15.8 -97.8 15.8 -97.8 15.8 -97.8
1997-09-30 12:00:00 15.7 -98.6 15.7 -98.6 15.7 -98.6
1997-09-30 18:00:00 15.6 -99.4 15.6 -99.4 15.6 -99.4
1997-10-01 00:00:00 15.5 -100.3 15.5 -100.3 15.5 -100.3
1997-10-01 06:00:00 15.5 -101.3 15.5 -101.3 15.5 -101.3
1997-10-01 12:00:00 15.4 -102.3 15.4 -102.3 15.4 -102.3
1997-10-01 18:00:00 15.3 -103.5 15.3 -103.5 15.3 -103.5
1997-10-02 00:00:00 15.2 -104.7 15.2 -104.7 15.2 -104.7
1997-10-02 06:00:00 15.2 -106.0 15.2 -106.0 15.2 -106.0
1997-10-02 12:00:00 15.1 -107.3 15.1 -107.3 15.1 -107.3
hurdat_epa jtwc_ep atcf
1997-10-02 18:00:00 15.1 -108.6 15.1 -108.6 15.1 -108.6
1997-10-03 00:00:00 15.1 -110.0 15.1 -110.0 15.1 -110.0
1997-10-03 06:00:00 15.1 -111.4 15.1 -111.4 15.1 -111.4
1997-10-03 12:00:00 15.2 -112.6 15.2 -112.6 15.2 -112.6
1997-10-03 18:00:00 15.4 -113.7 15.4 -113.7 15.4 -113.7
1997-10-04 00:00:00 15.8 -114.3 15.8 -114.3 15.8 -114.3
1997-10-04 06:00:00 16.2 -114.8 16.2 -114.8 16.2 -114.8
1997-10-04 12:00:00 16.3 -115.4 16.3 -115.4 16.3 -115.4
1997-10-04 18:00:00 16.4 -115.9 16.4 -115.9 16.4 -115.9
1997-10-05 00:00:00 16.5 -116.4 16.5 -116.4 16.5 -116.4
1997-10-05 06:00:00 16.5 -116.8 16.5 -116.8 16.5 -116.8
1997-10-05 12:00:00 16.5 -116.6 16.5 -116.6 16.5 -116.6
1997-10-05 18:00:00 16.6 -115.9 16.6 -115.9 16.6 -115.9
1997-10-06 00:00:00 16.5 -115.3 16.5 -115.3 16.5 -115.3
1997-10-06 06:00:00 16.4 -114.8 16.4 -114.8 16.4 -114.8
1997-10-06 12:00:00 16.2 -114.3 16.2 -114.3 16.2 -114.3
1997-10-06 18:00:00 16.0 -113.8 16.0 -113.8 16.0 -113.8
1997-10-07 00:00:00 15.8 -113.3 15.8 -113.3 15.8 -113.3
1997-10-07 06:00:00 15.7 -113.0 15.7 -113.0 15.7 -113.0
1997-10-07 12:00:00 15.7 -112.5 15.7 -112.5 15.7 -112.5
1997-10-07 18:00:00 15.6 -111.9 15.6 -111.9 15.6 -111.9
1997-10-08 00:00:00 15.3 -111.1 15.3 -111.1 15.3 -111.1
1997-10-08 06:00:00 14.9 -110.2 14.9 -110.2 14.9 -110.2
1997-10-08 12:00:00 14.4 -109.3 14.4 -109.3 14.4 -109.3
hurdat_epa jtwc_ep atcf
1997-10-08 18:00:00 13.8 -108.4 13.8 -108.4 13.8 -108.4
1997-10-09 00:00:00 13.2 -107.6 13.2 -107.6 13.2 -107.6
1997-10-09 06:00:00 12.6 -106.8 12.6 -106.8 12.6 -106.8
1997-10-09 12:00:00 12.1 -106.1 12.1 -106.1 12.1 -106.1
1997-10-09 18:00:00 11.9 -105.4 11.9 -105.4 11.9 -105.4
1997-10-10 00:00:00 12.2 -104.9 12.2 -104.9 12.2 -104.9
1997-10-10 06:00:00 12.8 -104.5 12.8 -104.5 12.8 -104.5
1997-10-10 12:00:00 13.4 -104.1 13.4 -104.1 13.4 -104.1
1997-10-10 18:00:00 14.1 -103.9 14.1 -103.9 14.1 -103.9
1997-10-11 00:00:00 15.4 -103.8 15.4 -103.8 15.4 -103.8
1997-10-11 06:00:00 16.0 -104.0 16.0 -104.0 16.0 -104.0
1997-10-11 12:00:00 16.7 -104.0 16.7 -104.0 16.7 -104.0
1997-10-11 18:00:00 17.3 -104.0 17.3 -104.0 17.3 -104.0
1997-10-12 00:00:00 17.8 -104.0 17.8 -104.0 17.8 -104.0
1997-10-12 06:00:00 18.2 -104.0 18.2 -104.0 18.2 -104.0
1997-10-12 12:00:00 18.7 -104.0 18.7 -104.0 18.7 -104.0
1997-10-12 18:00:00 19.0 -104.2 19.0 -104.2 19.0 -104.2

top of pageTrack Data:Intensity

hurdat_epa jtwc_ep atcf
Date Wind Pres Wind Pres Wind Pres
1997-09-26 12:00:00 30. 1008. 30. 30. 1008.
1997-09-26 18:00:00 40. 1005. 40. 40. 1005.
1997-09-27 00:00:00 45. 1000. 45. 45. 1000.
1997-09-27 06:00:00 55. 995. 55. 55. 995.
1997-09-27 12:00:00 55. 990. 55. 55. 990.
1997-09-27 18:00:00 60. 989. 60. 60. 989.
1997-09-28 00:00:00 60. 990. 60. 60. 990.
1997-09-28 06:00:00 55. 994. 55. 55. 994.
1997-09-28 12:00:00 50. 996. 50. 50. 996.
1997-09-28 18:00:00 45. 1000. 45. 45. 1000.
1997-09-29 00:00:00 30. 1005. 30. 30. 1005.
1997-09-29 06:00:00 25. 1009. 25. 25. 1009.
1997-09-29 12:00:00 25. 1009. 25. 25. 1009.
1997-09-29 18:00:00 25. 1009. 25. 25. 1009.
1997-09-30 00:00:00 25. 1009. 25. 25. 1009.
1997-09-30 06:00:00 25. 1009. 25. 25. 1009.
1997-09-30 12:00:00 25. 1009. 25. 25. 1009.
1997-09-30 18:00:00 25. 1009. 25. 25. 1009.
1997-10-01 00:00:00 25. 1009. 25. 25. 1009.
1997-10-01 06:00:00 25. 1009. 25. 25. 1009.
1997-10-01 12:00:00 25. 1009. 25. 25. 1009.
1997-10-01 18:00:00 25. 1009. 25. 25. 1009.
1997-10-02 00:00:00 25. 1009. 25. 25. 1009.
1997-10-02 06:00:00 25. 1009. 25. 25. 1009.
1997-10-02 12:00:00 25. 1009. 25. 25. 1009.
hurdat_epa jtwc_ep atcf
1997-10-02 18:00:00 25. 1009. 25. 25. 1009.
1997-10-03 00:00:00 25. 1009. 25. 25. 1009.
1997-10-03 06:00:00 25. 1009. 25. 25. 1009.
1997-10-03 12:00:00 25. 1009. 25. 25. 1009.
1997-10-03 18:00:00 25. 1009. 25. 25. 1009.
1997-10-04 00:00:00 25. 1009. 25. 25. 1009.
1997-10-04 06:00:00 25. 1009. 25. 25. 1009.
1997-10-04 12:00:00 25. 1009. 25. 25. 1009.
1997-10-04 18:00:00 25. 1009. 25. 25. 1009.
1997-10-05 00:00:00 25. 1009. 25. 25. 1009.
1997-10-05 06:00:00 25. 1009. 25. 25. 1009.
1997-10-05 12:00:00 25. 1007. 25. 25. 1007.
1997-10-05 18:00:00 30. 1005. 30. 30. 1005.
1997-10-06 00:00:00 30. 1005. 30. 30. 1005.
1997-10-06 06:00:00 30. 1005. 30. 30. 1005.
1997-10-06 12:00:00 30. 1005. 30. 30. 1005.
1997-10-06 18:00:00 30. 1005. 30. 30. 1005.
1997-10-07 00:00:00 30. 1005. 30. 30. 1005.
1997-10-07 06:00:00 30. 1005. 30. 30. 1005.
1997-10-07 12:00:00 30. 1005. 30. 30. 1005.
1997-10-07 18:00:00 30. 1005. 30. 30. 1005.
1997-10-08 00:00:00 30. 1005. 30. 30. 1005.
1997-10-08 06:00:00 30. 1005. 30. 30. 1005.
1997-10-08 12:00:00 30. 1005. 30. 30. 1005.
hurdat_epa jtwc_ep atcf
1997-10-08 18:00:00 30. 1005. 30. 30. 1005.
1997-10-09 00:00:00 30. 1005. 30. 30. 1005.
1997-10-09 06:00:00 30. 1005. 30. 30. 1005.
1997-10-09 12:00:00 30. 1005. 30. 30. 1005.
1997-10-09 18:00:00 30. 1005. 30. 30. 1005.
1997-10-10 00:00:00 30. 1005. 30. 30. 1005.
1997-10-10 06:00:00 30. 1005. 30. 30. 1005.
1997-10-10 12:00:00 30. 1005. 30. 30. 1005.
1997-10-10 18:00:00 30. 1005. 30. 30. 1005.
1997-10-11 00:00:00 30. 1005. 30. 30. 1005.
1997-10-11 06:00:00 30. 1005. 30. 30. 1005.
1997-10-11 12:00:00 30. 1005. 30. 30. 1005.
1997-10-11 18:00:00 30. 1005. 30. 30. 1005.
1997-10-12 00:00:00 30. 1005. 30. 30. 1005.
1997-10-12 06:00:00 30. 1005. 30. 30. 1005.
1997-10-12 12:00:00 30. 1005. 30. 30. 1005.
1997-10-12 18:00:00 25. 1009. 25. 25. 1009.

top of page Links to source data

Source Source file Format
hurdat_epa tracks1949to2011_epa.html:678:OLAF HURDAT
jtwc_ep bep171997.txt ATCF
atcf bep171997.dat ATCF